Time;durP1;ratioP1;P1;durP2;ratioP2;P2;SDS_P1;SDS_P2;PMS_P1;PMS_P2;Temp;Humidity;BMP_temperature;BMP_pressure;BME280_temperature;BME280_humidity;BME280_pressure;Samples;Min_cycle;Max_cycle;Signal;HPM_P1;HPM_P2
2022/05/31 00:01:55;;;;;;;4.65;3.75;;;8.80;99.90;;;;;;5041477;28;20041;-45
2022/05/31 00:04:21;;;;;;;3.78;3.47;;;8.70;99.90;;;;;;5043227;28;20471;-45
2022/05/31 00:06:47;;;;;;;7.10;3.33;;;8.70;99.90;;;;;;5045060;28;20040;-45
2022/05/31 00:09:13;;;;;;;5.70;3.55;;;8.80;99.90;;;;;;5026541;28;20055;-44
2022/05/31 00:11:41;;;;;;;4.28;3.30;;;8.70;99.90;;;;;;5044544;28;20045;-44
2022/05/31 00:14:08;;;;;;;4.20;3.80;;;8.70;99.90;;;;;;5044444;28;20048;-44
2022/05/31 00:16:34;;;;;;;4.13;3.55;;;8.60;99.90;;;;;;5044886;28;20393;-44
2022/05/31 00:19:00;;;;;;;5.53;3.83;;;8.60;99.90;;;;;;5044571;28;20104;-46
2022/05/31 00:21:41;;;;;;;4.22;3.80;;;8.60;99.90;;;;;;5044777;28;20045;-45
2022/05/31 00:24:09;;;;;;;3.88;3.40;;;8.60;99.90;;;;;;5027025;28;20056;-45
2022/05/31 00:26:38;;;;;;;5.03;3.63;;;8.60;99.90;;;;;;5026739;28;20799;-46
2022/05/31 00:29:06;;;;;;;4.13;3.58;;;8.50;99.90;;;;;;5044124;28;20063;-45
2022/05/31 00:31:33;;;;;;;5.32;3.63;;;8.50;99.90;;;;;;5044984;28;20045;-47
2022/05/31 00:33:59;;;;;;;4.50;4.10;;;8.50;99.90;;;;;;5045722;28;20048;-44
2022/05/31 00:36:25;;;;;;;4.25;3.85;;;8.50;99.90;;;;;;5044969;28;20090;-45
2022/05/31 00:38:53;;;;;;;5.03;3.80;;;8.50;99.90;;;;;;5045027;28;20036;-45
2022/05/31 00:41:28;;;;;;;7.43;3.22;;;8.40;99.90;;;;;;5026696;28;20258;-45
2022/05/31 00:44:05;;;;;;;5.60;3.85;;;8.40;99.90;;;;;;5045876;28;20527;-44
2022/05/31 00:46:51;;;;;;;6.50;3.50;;;8.40;99.90;;;;;;5044610;28;20090;-46
2022/05/31 00:49:37;;;;;;;4.45;3.53;;;8.30;99.90;;;;;;5046915;28;20045;-45
2022/05/31 00:52:23;;;;;;;5.15;3.90;;;8.30;99.90;;;;;;5027402;28;20103;-47
2022/05/31 00:55:03;;;;;;;5.75;3.58;;;8.30;99.90;;;;;;5045359;28;20048;-48
2022/05/31 00:57:32;;;;;;;4.18;3.78;;;8.30;99.90;;;;;;5043782;28;20053;-44
2022/05/31 01:00:05;;;;;;;6.20;3.88;;;8.20;99.90;;;;;;5044453;28;20150;-44
2022/05/31 01:02:30;;;;;;;4.25;3.70;;;8.20;99.90;;;;;;5026213;28;20439;-46
2022/05/31 01:05:00;;;;;;;5.15;3.30;;;8.10;99.90;;;;;;5045464;28;20049;-45
2022/05/31 01:07:27;;;;;;;4.35;3.60;;;8.10;99.90;;;;;;5044240;28;20486;-44
2022/05/31 01:09:56;;;;;;;6.57;4.60;;;8.10;99.90;;;;;;5024181;28;20452;-46
2022/05/31 01:12:23;;;;;;;4.55;4.15;;;8.10;99.90;;;;;;5043983;28;20060;-42
2022/05/31 01:14:49;;;;;;;4.15;3.78;;;8.10;99.90;;;;;;5023946;28;20053;-45
2022/05/31 01:17:18;;;;;;;3.95;3.47;;;8.10;99.90;;;;;;5037127;28;20065;-44
2022/05/31 01:20:01;;;;;;;3.70;3.40;;;8.10;99.90;;;;;;5040046;28;20061;-45
2022/05/31 01:22:40;;;;;;;7.07;4.07;;;8.10;99.90;;;;;;5044686;28;20052;-45
2022/05/31 01:25:28;;;;;;;5.45;3.78;;;8.10;99.90;;;;;;5044537;28;20055;-44
2022/05/31 01:28:20;;;;;;;7.55;4.13;;;8.10;99.90;;;;;;5043705;28;20411;-46
2022/05/31 01:30:55;;;;;;;3.72;3.40;;;8.10;99.90;;;;;;5043075;28;20053;-46
2022/05/31 01:33:53;;;;;;;4.32;3.58;;;8.00;99.90;;;;;;5024939;28;20066;-44
2022/05/31 01:36:25;;;;;;;4.93;3.88;;;8.10;99.90;;;;;;4943186;29;20067;-45
2022/05/31 01:39:02;;;;;;;5.60;4.18;;;8.00;99.90;;;;;;4940015;29;20107;-47
2022/05/31 01:41:44;;;;;;;4.03;3.63;;;8.00;99.90;;;;;;4926696;29;20066;-45
2022/05/31 01:44:14;;;;;;;6.55;3.53;;;7.90;99.90;;;;;;4942463;29;20070;-44
2022/05/31 01:46:41;;;;;;;4.15;3.75;;;7.90;99.90;;;;;;4942979;29;20110;-46
2022/05/31 01:49:13;;;;;;;4.43;4.03;;;7.90;99.90;;;;;;4941613;29;20134;-47
2022/05/31 01:51:41;;;;;;;5.47;4.18;;;7.90;99.90;;;;;;4940907;29;20579;-44
2022/05/31 01:54:10;;;;;;;5.88;4.22;;;8.00;99.90;;;;;;4942717;29;20062;-44
2022/05/31 01:56:37;;;;;;;5.95;3.90;;;8.00;99.90;;;;;;4926571;29;20550;-44
2022/05/31 01:59:04;;;;;;;6.45;4.20;;;8.00;99.90;;;;;;4942397;29;20060;-44
2022/05/31 02:01:31;;;;;;;5.18;3.72;;;8.10;99.90;;;;;;4942368;29;20532;-45
2022/05/31 02:03:59;;;;;;;4.72;4.03;;;8.10;99.90;;;;;;4943317;29;20059;-47
2022/05/31 02:06:27;;;;;;;5.15;4.03;;;8.20;99.90;;;;;;4945307;29;20062;-46
2022/05/31 02:08:53;;;;;;;5.65;4.20;;;8.20;99.90;;;;;;4942963;29;20086;-47
2022/05/31 02:11:19;;;;;;;5.85;4.15;;;8.20;99.90;;;;;;4941800;29;20153;-44
2022/05/31 02:13:45;;;;;;;4.32;3.92;;;8.30;99.90;;;;;;5020778;28;20057;-42
2022/05/31 02:16:12;;;;;;;5.38;4.13;;;8.30;99.90;;;;;;5041583;28;20507;-46
2022/05/31 02:21:23;;;;;;;4.82;4.30;;;8.30;99.90;;;;;;5041855;28;20056;-46
2022/05/31 02:23:48;;;;;;;5.32;4.07;;;8.40;99.90;;;;;;5042533;28;20352;-46
2022/05/31 02:26:14;;;;;;;4.40;4.00;;;8.40;99.90;;;;;;5042579;28;20570;-45
2022/05/31 02:28:40;;;;;;;6.25;4.20;;;8.40;99.90;;;;;;5022653;28;20045;-45
2022/05/31 02:31:06;;;;;;;4.85;4.35;;;8.40;99.90;;;;;;5042721;28;20041;-44
2022/05/31 02:33:32;;;;;;;4.60;4.20;;;8.40;99.90;;;;;;5042461;28;20071;-47
2022/05/31 02:35:57;;;;;;;6.47;4.82;;;8.50;99.90;;;;;;5042853;28;20049;-43
2022/05/31 02:38:26;;;;;;;4.78;4.30;;;8.50;99.90;;;;;;5022944;28;20063;-47
2022/05/31 02:40:52;;;;;;;4.57;3.90;;;8.50;99.90;;;;;;5042206;28;20127;-45
2022/05/31 02:43:18;;;;;;;5.55;4.22;;;8.50;99.90;;;;;;5042385;28;20418;-47
2022/05/31 02:45:44;;;;;;;5.05;4.13;;;8.50;99.90;;;;;;5042371;28;20401;-44
2022/05/31 02:48:10;;;;;;;6.07;4.22;;;8.40;99.90;;;;;;5042400;28;20056;-45
2022/05/31 02:50:39;;;;;;;4.80;4.30;;;8.50;99.90;;;;;;5042424;28;20484;-46
2022/05/31 02:53:05;;;;;;;5.55;4.82;;;8.50;99.90;;;;;;5024560;28;20084;-44
2022/05/31 02:55:31;;;;;;;7.20;4.35;;;8.50;99.90;;;;;;5042190;28;20478;-45
2022/05/31 02:57:57;;;;;;;5.22;3.97;;;8.50;99.90;;;;;;5041547;28;20048;-45
2022/05/31 03:00:22;;;;;;;7.10;4.35;;;8.50;99.90;;;;;;5022489;28;20103;-45
2022/05/31 03:02:48;;;;;;;4.75;4.35;;;8.50;99.90;;;;;;5042790;28;20542;-44
2022/05/31 03:05:14;;;;;;;5.13;4.60;;;8.50;99.90;;;;;;5021149;28;20143;-46
2022/05/31 03:07:39;;;;;;;7.03;4.55;;;8.60;99.90;;;;;;5021801;28;20056;-47
2022/05/31 03:10:05;;;;;;;5.35;4.40;;;8.50;99.90;;;;;;5023113;28;20049;-45
2022/05/31 03:12:33;;;;;;;6.00;4.18;;;8.50;99.90;;;;;;5022618;28;20471;-47
2022/05/31 03:15:09;;;;;;;5.65;4.00;;;8.50;99.90;;;;;;5023270;28;20046;-43
2022/05/31 03:17:49;;;;;;;5.07;4.57;;;8.60;99.90;;;;;;5023170;28;20064;-46
2022/05/31 03:20:23;;;;;;;8.98;4.70;;;8.60;99.90;;;;;;5025595;28;20057;-49
2022/05/31 03:22:56;;;;;;;5.20;4.05;;;8.60;99.90;;;;;;5023409;28;20049;-49
2022/05/31 03:25:25;;;;;;;5.70;4.78;;;8.60;99.90;;;;;;5026523;28;20040;-48
2022/05/31 03:28:00;;;;;;;5.72;4.50;;;8.60;99.90;;;;;;5042127;28;20048;-47
2022/05/31 03:30:26;;;;;;;6.55;4.32;;;8.60;99.90;;;;;;5022627;28;20430;-44
2022/05/31 03:32:55;;;;;;;6.78;4.30;;;8.60;99.90;;;;;;5042649;28;20049;-45
2022/05/31 03:35:21;;;;;;;4.93;4.30;;;8.60;99.90;;;;;;5042361;28;20063;-46
2022/05/31 03:37:46;;;;;;;5.95;4.70;;;8.70;99.90;;;;;;5022416;28;20053;-44
2022/05/31 03:40:55;;;;;;;5.30;4.75;;;8.60;99.90;;;;;;5011844;28;20077;-45
2022/05/31 03:43:02;;;;;;;6.82;4.38;;;8.70;99.90;;;;;;5041373;28;20443;-44
2022/05/31 03:45:36;;;;;;;5.72;4.50;;;8.70;99.90;;;;;;5007317;28;20052;-45
2022/05/31 03:48:02;;;;;;;5.60;4.78;;;8.70;99.90;;;;;;5040901;28;20554;-45
2022/05/31 03:50:34;;;;;;;8.55;5.60;;;8.80;99.90;;;;;;5041645;28;20041;-46
2022/05/31 03:53:00;;;;;;;5.40;4.75;;;8.80;99.90;;;;;;5042390;28;20084;-43
2022/05/31 03:55:25;;;;;;;4.57;4.05;;;8.80;99.90;;;;;;5041775;28;20040;-45
2022/05/31 03:57:52;;;;;;;5.38;4.38;;;8.80;99.90;;;;;;5041473;28;20056;-45
2022/05/31 04:00:19;;;;;;;6.18;4.57;;;8.80;99.90;;;;;;5041539;28;20506;-45
2022/05/31 04:02:46;;;;;;;5.25;3.92;;;8.80;99.90;;;;;;5020849;28;20053;-44
2022/05/31 04:05:12;;;;;;;5.93;4.47;;;8.80;99.90;;;;;;5041361;28;20534;-47
2022/05/31 04:07:38;;;;;;;4.60;4.15;;;8.80;99.90;;;;;;5041208;28;20056;-44
2022/05/31 04:10:06;;;;;;;6.63;4.55;;;8.90;99.90;;;;;;5020228;28;20049;-44
2022/05/31 04:12:36;;;;;;;5.13;4.63;;;8.90;99.90;;;;;;5041473;28;20555;-45
2022/05/31 04:15:02;;;;;;;5.72;4.68;;;8.90;99.90;;;;;;5041723;28;20056;-45
2022/05/31 04:17:27;;;;;;;6.18;4.47;;;8.90;99.90;;;;;;5040480;28;20518;-46
2022/05/31 04:19:53;;;;;;;5.85;4.75;;;8.90;99.90;;;;;;5040215;28;20187;-44
2022/05/31 04:22:19;;;;;;;6.32;4.88;;;8.90;99.90;;;;;;5023460;28;20056;-46
2022/05/31 04:24:45;;;;;;;5.07;4.55;;;9.00;99.90;;;;;;5041654;28;20048;-45
2022/05/31 04:27:17;;;;;;;5.65;4.57;;;9.00;99.90;;;;;;5041589;28;20048;-46
2022/05/31 04:29:44;;;;;;;4.45;4.05;;;9.00;99.90;;;;;;5041530;28;20041;-44
2022/05/31 04:32:14;;;;;;;5.68;4.60;;;9.00;99.90;;;;;;5040992;28;20488;-46
2022/05/31 04:34:40;;;;;;;4.90;4.40;;;9.00;99.90;;;;;;5025379;28;20060;-45
2022/05/31 04:37:06;;;;;;;5.10;4.63;;;9.10;99.90;;;;;;5044081;28;20698;-47
2022/05/31 04:39:32;;;;;;;4.68;4.18;;;9.10;99.90;;;;;;5033851;28;20049;-49
2022/05/31 04:41:58;;;;;;;4.70;4.25;;;9.10;99.90;;;;;;5022470;28;20088;-45
2022/05/31 04:44:24;;;;;;;5.10;4.57;;;9.10;99.90;;;;;;5041397;28;20145;-47
2022/05/31 04:46:49;;;;;;;5.60;4.95;;;9.10;99.90;;;;;;5041165;28;20053;-46
2022/05/31 04:49:15;;;;;;;4.70;4.30;;;9.20;99.90;;;;;;5041814;28;20495;-46
2022/05/31 04:51:43;;;;;;;9.48;5.68;;;9.30;99.90;;;;;;5042475;28;20443;-45
2022/05/31 04:54:09;;;;;;;5.93;4.43;;;9.30;99.90;;;;;;5045355;28;20132;-43
2022/05/31 04:56:35;;;;;;;5.53;5.03;;;9.40;99.90;;;;;;5022945;28;20094;-46
2022/05/31 04:59:02;;;;;;;6.05;4.80;;;9.40;99.90;;;;;;5040714;28;20053;-44
2022/05/31 05:01:28;;;;;;;5.03;4.53;;;9.50;99.90;;;;;;5044026;28;20120;-45
2022/05/31 05:03:54;;;;;;;6.53;4.93;;;9.50;99.90;;;;;;5043840;28;20060;-43
2022/05/31 05:06:21;;;;;;;5.68;4.75;;;9.50;99.90;;;;;;5045140;28;20479;-44
2022/05/31 05:08:48;;;;;;;5.47;4.95;;;9.60;99.90;;;;;;5044232;28;20124;-44
2022/05/31 05:11:18;;;;;;;5.35;4.85;;;9.60;99.90;;;;;;5044273;28;20084;-46
2022/05/31 05:13:45;;;;;;;7.85;4.70;;;9.70;99.90;;;;;;5043147;28;20517;-48
2022/05/31 05:16:12;;;;;;;5.88;4.60;;;9.80;99.90;;;;;;5044445;28;20053;-44
2022/05/31 05:18:38;;;;;;;5.28;4.78;;;9.80;99.90;;;;;;5043753;28;20057;-44
2022/05/31 05:21:11;;;;;;;5.78;4.60;;;9.90;99.90;;;;;;5043995;28;20048;-44
2022/05/31 05:23:40;;;;;;;5.75;4.68;;;10.00;99.90;;;;;;5024521;28;20045;-45
2022/05/31 05:26:06;;;;;;;7.45;5.03;;;10.00;99.90;;;;;;5044974;28;20048;-47
2022/05/31 05:31:19;;;;;;;8.70;5.72;;;10.10;99.90;;;;;;5043594;28;20067;-46
2022/05/31 05:33:46;;;;;;;6.50;5.88;;;10.30;99.90;;;;;;5044537;28;20155;-44
2022/05/31 05:36:12;;;;;;;7.97;6.60;;;10.40;99.90;;;;;;5044370;28;20591;-46
2022/05/31 05:38:38;;;;;;;8.27;7.32;;;10.50;99.90;;;;;;5026070;28;20067;-44
2022/05/31 05:41:04;;;;;;;9.70;7.32;;;10.60;99.90;;;;;;5044039;28;20041;-46
2022/05/31 05:43:30;;;;;;;6.13;5.38;;;10.80;99.90;;;;;;5023297;28;20061;-44
2022/05/31 05:45:55;;;;;;;7.95;6.13;;;10.90;99.90;;;;;;5044024;28;20111;-45
2022/05/31 05:48:21;;;;;;;9.15;6.00;;;11.10;99.90;;;;;;5044130;28;20044;-47
2022/05/31 05:50:48;;;;;;;6.75;5.55;;;11.20;99.90;;;;;;5046277;28;20040;-46
2022/05/31 05:53:13;;;;;;;8.55;6.70;;;11.40;99.90;;;;;;5045097;28;20439;-49
2022/05/31 05:55:40;;;;;;;7.28;5.75;;;11.60;99.90;;;;;;5044261;28;20060;-47
2022/05/31 05:58:12;;;;;;;10.98;6.15;;;11.80;99.90;;;;;;5025811;28;20064;-48
2022/05/31 06:00:47;;;;;;;14.50;8.00;;;12.00;99.90;;;;;;5042356;28;20222;-44
2022/05/31 06:03:31;;;;;;;14.05;8.32;;;12.40;99.90;;;;;;5041782;28;20504;-46
2022/05/31 06:06:00;;;;;;;8.50;5.85;;;13.70;99.90;;;;;;5038479;28;20141;-45
2022/05/31 06:08:36;;;;;;;9.27;5.30;;;14.70;99.90;;;;;;5025448;28;20053;-45
2022/05/31 06:11:21;;;;;;;9.68;6.15;;;15.00;99.90;;;;;;5042721;28;20052;-43
2022/05/31 06:13:49;;;;;;;7.63;5.25;;;15.70;99.90;;;;;;5042954;28;20127;-45
2022/05/31 06:16:19;;;;;;;11.07;4.55;;;16.80;99.90;;;;;;5041222;28;20438;-45
2022/05/31 06:18:50;;;;;;;5.90;4.72;;;17.40;99.90;;;;;;5042333;28;20106;-45
2022/05/31 06:21:20;;;;;;;8.43;5.63;;;17.10;99.90;;;;;;5024567;28;20057;-43
2022/05/31 06:23:49;;;;;;;5.40;4.53;;;16.40;99.90;;;;;;5042003;28;20057;-45
2022/05/31 06:26:16;;;;;;;6.25;4.65;;;15.90;99.90;;;;;;5042703;28;20068;-43
2022/05/31 06:28:51;;;;;;;7.75;4.28;;;15.30;99.90;;;;;;5032207;28;20045;-46
2022/05/31 06:31:17;;;;;;;6.28;4.05;;;14.80;99.90;;;;;;5041298;28;20511;-45
2022/05/31 06:33:43;;;;;;;6.20;4.95;;;14.50;99.90;;;;;;5041538;28;20132;-44
2022/05/31 06:36:08;;;;;;;6.53;3.80;;;14.40;99.90;;;;;;5041751;28;20480;-45
2022/05/31 06:38:34;;;;;;;5.78;4.55;;;14.30;99.90;;;;;;5041395;28;20051;-45
2022/05/31 06:41:00;;;;;;;4.47;4.00;;;14.20;99.90;;;;;;5040625;28;20075;-45
2022/05/31 06:43:26;;;;;;;4.90;4.40;;;14.10;99.90;;;;;;5041610;28;20140;-45
2022/05/31 06:45:52;;;;;;;6.75;4.60;;;14.20;99.90;;;;;;5042043;28;20044;-47
2022/05/31 06:48:17;;;;;;;5.35;4.68;;;14.30;99.90;;;;;;5040607;28;20103;-44
2022/05/31 06:50:43;;;;;;;5.90;4.50;;;14.40;99.90;;;;;;5040552;28;20052;-44
2022/05/31 06:58:42;;;;;;;5.93;4.38;;;15.30;99.90;;;;;;5038974;28;20132;-48
2022/05/31 07:01:09;;;;;;;9.48;6.50;;;15.40;99.90;;;;;;5022572;28;20530;-44
2022/05/31 07:03:34;;;;;;;6.20;4.35;;;16.30;99.90;;;;;;5041352;28;20078;-47
2022/05/31 07:06:00;;;;;;;5.05;3.78;;;18.00;99.90;;;;;;5043722;28;20124;-46
2022/05/31 07:08:26;;;;;;;5.25;3.50;;;19.50;99.90;;;;;;5043633;28;20045;-45
2022/05/31 07:10:53;;;;;;;6.47;3.90;;;20.90;99.90;;;;;;5041533;28;20095;-46
2022/05/31 07:13:20;;;;;;;4.90;3.25;;;21.70;99.90;;;;;;5040551;28;20049;-47
2022/05/31 07:15:46;;;;;;;8.02;3.13;;;22.00;97.70;;;;;;5040336;28;20123;-45
2022/05/31 07:18:12;;;;;;;4.82;3.13;;;22.50;97.50;;;;;;5039961;28;20499;-45
2022/05/31 07:20:37;;;;;;;5.60;3.38;;;22.60;97.60;;;;;;5040362;28;20518;-45
2022/05/31 07:23:06;;;;;;;5.38;3.60;;;22.30;97.20;;;;;;5021819;28;20041;-46
2022/05/31 07:25:32;;;;;;;5.20;3.05;;;21.90;96.20;;;;;;5041833;28;20072;-47
2022/05/31 07:27:58;;;;;;;5.85;3.17;;;21.70;97.00;;;;;;5041093;28;20541;-44
2022/05/31 07:30:24;;;;;;;6.88;3.50;;;21.50;96.40;;;;;;5023359;28;20048;-46
2022/05/31 07:32:49;;;;;;;4.32;3.22;;;21.20;96.40;;;;;;5041416;28;20067;-44
2022/05/31 07:35:15;;;;;;;5.90;3.40;;;21.20;96.40;;;;;;5040593;28;20884;-44
2022/05/31 07:37:41;;;;;;;3.88;2.97;;;21.20;96.10;;;;;;5041211;28;20327;-45
2022/05/31 07:40:07;;;;;;;5.90;3.28;;;21.10;95.90;;;;;;5022656;28;20570;-44
2022/05/31 07:42:33;;;;;;;5.43;3.10;;;20.90;95.80;;;;;;5042084;28;20483;-44
2022/05/31 07:44:59;;;;;;;5.93;3.38;;;20.90;95.00;;;;;;5038843;28;20072;-43
2022/05/31 07:47:25;;;;;;;6.97;3.58;;;20.70;94.60;;;;;;5041224;28;20488;-45
2022/05/31 07:49:51;;;;;;;4.45;3.25;;;20.60;95.10;;;;;;5021005;28;20430;-45
2022/05/31 07:52:18;;;;;;;7.53;3.10;;;20.80;95.50;;;;;;5041132;28;20087;-45
2022/05/31 07:54:44;;;;;;;6.97;3.60;;;20.50;94.20;;;;;;5040753;28;20053;-45
2022/05/31 07:58:30;;;;;;;4.18;3.20;;;20.50;94.90;;;;;;5040126;28;20064;-46
2022/05/31 07:59:58;;;;;;;9.90;3.60;;;20.60;94.10;;;;;;5040328;28;20567;-46
2022/05/31 08:02:33;;;;;;;7.78;3.78;;;20.50;94.40;;;;;;5040004;28;20112;-46
2022/05/31 08:05:00;;;;;;;7.20;3.85;;;20.40;94.90;;;;;;5034372;28;20087;-44
2022/05/31 08:07:25;;;;;;;8.30;3.50;;;20.40;94.20;;;;;;5004922;28;20048;-46
2022/05/31 08:09:51;;;;;;;5.03;3.53;;;20.20;94.40;;;;;;5040950;28;20211;-47
2022/05/31 08:12:17;;;;;;;6.35;3.60;;;20.10;94.10;;;;;;5042068;28;20041;-45
2022/05/31 08:14:42;;;;;;;6.03;4.30;;;20.20;94.10;;;;;;5039728;28;20507;-46
2022/05/31 08:17:10;;;;;;;5.35;4.30;;;20.20;94.50;;;;;;5041027;28;20799;-44
2022/05/31 08:19:37;;;;;;;5.78;5.15;;;20.20;94.90;;;;;;5041825;28;20041;-46
2022/05/31 08:22:03;;;;;;;6.28;4.53;;;20.10;93.40;;;;;;5043990;28;20041;-48
2022/05/31 08:24:29;;;;;;;6.38;4.22;;;20.20;93.60;;;;;;5041698;28;20045;-48
2022/05/31 08:26:55;;;;;;;7.43;4.82;;;20.10;93.90;;;;;;5042970;28;20060;-49
2022/05/31 08:29:22;;;;;;;6.82;4.60;;;20.30;94.60;;;;;;5044589;28;20045;-45
2022/05/31 08:31:48;;;;;;;6.25;4.97;;;20.40;93.40;;;;;;5043435;28;20646;-44
2022/05/31 08:34:14;;;;;;;7.78;4.95;;;20.60;93.50;;;;;;5044868;28;20163;-46
2022/05/31 08:36:40;;;;;;;10.73;5.35;;;20.60;94.30;;;;;;5043676;28;20365;-45
2022/05/31 08:39:09;;;;;;;6.43;4.80;;;20.50;92.60;;;;;;5037218;28;20049;-47
2022/05/31 08:41:46;;;;;;;5.85;5.07;;;20.60;93.60;;;;;;5043117;28;20107;-46
2022/05/31 08:44:32;;;;;;;9.45;4.97;;;20.80;93.00;;;;;;5026408;28;20119;-45
2022/05/31 08:47:18;;;;;;;7.10;4.82;;;20.60;93.20;;;;;;5025468;28;20148;-46
2022/05/31 08:53:17;;;;;;;18.77;8.77;;;20.70;93.20;;;;;;5043152;28;20096;-46
2022/05/31 08:59:11;;;;;;;7.75;5.30;;;21.00;93.00;;;;;;5043448;28;20060;-45
2022/05/31 09:01:59;;;;;;;7.60;4.63;;;21.00;91.20;;;;;;4942442;29;20202;-45
2022/05/31 09:04:37;;;;;;;10.00;5.13;;;20.70;91.10;;;;;;4943362;29;20546;-45
2022/05/31 09:07:08;;;;;;;12.75;5.82;;;20.50;92.50;;;;;;4942295;29;20074;-45
2022/05/31 09:09:54;;;;;;;8.75;5.35;;;20.50;92.10;;;;;;4941878;29;20051;-45
2022/05/31 09:12:41;;;;;;;12.90;6.78;;;20.30;92.40;;;;;;4942208;29;20410;-46
2022/05/31 09:15:28;;;;;;;11.20;6.22;;;20.30;91.80;;;;;;4942738;29;20110;-47
2022/05/31 09:17:59;;;;;;;9.30;4.55;;;20.50;91.20;;;;;;4941530;29;20147;-46
2022/05/31 09:20:33;;;;;;;9.82;4.60;;;20.60;90.80;;;;;;4941760;29;20057;-47
2022/05/31 09:22:59;;;;;;;10.15;5.35;;;20.60;90.50;;;;;;4941955;29;20051;-46
2022/05/31 09:25:37;;;;;;;8.40;5.20;;;20.20;90.40;;;;;;4937792;29;20070;-46
2022/05/31 09:28:16;;;;;;;6.72;4.57;;;20.10;90.50;;;;;;4942061;29;20253;-43
2022/05/31 09:30:44;;;;;;;10.30;5.20;;;19.80;89.60;;;;;;4927068;29;20661;-45
2022/05/31 09:33:12;;;;;;;9.90;5.88;;;19.40;90.90;;;;;;4943439;29;20086;-46
2022/05/31 09:36:00;;;;;;;8.75;5.40;;;19.10;90.80;;;;;;4944232;29;20055;-44
2022/05/31 09:38:31;;;;;;;8.55;5.40;;;19.00;91.80;;;;;;4980496;28;20136;-46
2022/05/31 09:41:06;;;;;;;10.60;5.97;;;18.90;91.10;;;;;;5042827;28;20071;-47
2022/05/31 09:43:38;;;;;;;7.72;5.00;;;18.90;92.30;;;;;;5043776;28;20056;-49
2022/05/31 09:46:08;;;;;;;7.63;4.85;;;18.90;91.90;;;;;;5043902;28;20053;-46
2022/05/31 09:48:49;;;;;;;8.32;4.55;;;18.80;93.10;;;;;;5043110;28;20082;-46
2022/05/31 09:51:24;;;;;;;9.40;5.20;;;19.00;91.20;;;;;;5037109;28;20120;-45
2022/05/31 09:59:26;;;;;;;9.82;5.82;;;19.00;92.40;;;;;;5042584;28;20057;-47
2022/05/31 10:01:52;;;;;;;7.60;5.10;;;19.00;92.50;;;;;;5043230;28;20454;-43
2022/05/31 10:04:31;;;;;;;8.23;4.95;;;19.00;92.20;;;;;;5043174;28;20044;-47
2022/05/31 10:07:06;;;;;;;9.50;5.55;;;19.00;92.60;;;;;;5043769;28;20400;-45
2022/05/31 10:09:37;;;;;;;9.38;5.20;;;19.00;91.10;;;;;;5041991;28;20471;-45
2022/05/31 10:12:26;;;;;;;7.88;5.10;;;19.10;91.20;;;;;;5044445;28;20558;-45
2022/05/31 10:14:54;;;;;;;7.70;5.35;;;19.20;90.50;;;;;;5042199;28;20493;-45
2022/05/31 10:17:41;;;;;;;9.65;4.78;;;19.20;91.20;;;;;;5042762;28;20519;-45
2022/05/31 10:20:29;;;;;;;8.68;5.88;;;19.30;93.30;;;;;;5042311;28;20056;-45
2022/05/31 10:22:59;;;;;;;9.45;6.57;;;19.30;92.60;;;;;;5040859;28;20052;-45
2022/05/31 10:25:29;;;;;;;9.20;5.82;;;19.30;92.40;;;;;;5042634;28;20159;-44
2022/05/31 10:27:58;;;;;;;9.27;6.40;;;19.30;93.20;;;;;;5021940;28;20049;-47
2022/05/31 10:30:25;;;;;;;10.18;5.72;;;19.30;94.00;;;;;;5042187;28;20456;-45
2022/05/31 10:33:04;;;;;;;6.95;5.25;;;19.30;92.80;;;;;;5041968;28;20053;-45
2022/05/31 10:35:35;;;;;;;8.88;5.00;;;19.30;92.90;;;;;;5041772;28;20436;-46
2022/05/31 10:38:04;;;;;;;7.82;5.00;;;19.20;90.80;;;;;;5041674;28;20057;-45
2022/05/31 10:40:54;;;;;;;8.05;4.78;;;19.20;90.90;;;;;;5040034;28;20559;-44
2022/05/31 10:43:30;;;;;;;9.02;4.57;;;19.20;92.60;;;;;;5040338;28;20090;-47
2022/05/31 10:45:57;;;;;;;8.57;4.80;;;19.30;91.90;;;;;;5041668;28;20394;-48
2022/05/31 10:48:25;;;;;;;7.15;5.32;;;19.50;92.50;;;;;;5041659;28;20060;-48
2022/05/31 10:51:13;;;;;;;7.07;4.47;;;19.70;92.70;;;;;;5041974;28;20044;-46
2022/05/31 10:53:57;;;;;;;6.40;4.55;;;20.10;91.10;;;;;;5041311;28;20146;-45
2022/05/31 10:57:07;;;;;;;8.95;4.47;;;20.40;90.10;;;;;;5042612;28;20049;-43
2022/05/31 10:59:53;;;;;;;8.30;4.90;;;20.70;91.00;;;;;;4943776;29;20059;-45
2022/05/31 11:02:52;;;;;;;7.88;4.97;;;21.00;89.80;;;;;;4942619;29;20055;-50
2022/05/31 11:05:39;;;;;;;7.82;5.22;;;21.00;89.20;;;;;;4925089;29;20152;-46
2022/05/31 11:11:30;;;;;;;17.48;7.25;;;20.90;88.90;;;;;;4940919;29;20484;-47
2022/05/31 11:14:33;;;;;;;13.32;6.97;;;20.90;89.20;;;;;;4940088;29;20578;-45
2022/05/31 11:17:13;;;;;;;11.90;5.60;;;20.60;90.00;;;;;;4940537;29;20070;-45
2022/05/31 11:20:16;;;;;;;17.98;6.35;;;20.50;89.40;;;;;;4940409;29;20061;-45
2022/05/31 11:23:19;;;;;;;8.75;5.40;;;20.10;86.70;;;;;;4924468;29;20055;-46
2022/05/31 11:25:58;;;;;;;8.85;5.68;;;20.00;90.80;;;;;;4886833;29;20205;-45
2022/05/31 11:28:42;;;;;;;8.20;5.60;;;19.70;89.50;;;;;;4883410;29;20571;-47
2022/05/31 11:31:45;;;;;;;11.32;6.93;;;19.70;88.80;;;;;;4899526;29;20475;-45
2022/05/31 11:34:20;;;;;;;;;;;19.60;89.10;;;;;;4902951;29;20408;-48
2022/05/31 11:37:11;;;;;;;7.78;5.50;;;19.40;90.90;;;;;;4885359;29;19927;-46
2022/05/31 11:40:04;;;;;;;7.70;5.07;;;19.50;90.20;;;;;;4902728;29;20044;-48
2022/05/31 11:42:59;;;;;;;9.93;6.15;;;19.40;90.60;;;;;;4872983;29;20174;-45
2022/05/31 11:45:33;;;;;;;7.70;5.57;;;19.40;90.10;;;;;;4892699;29;20483;-45
2022/05/31 11:48:26;;;;;;;7.75;5.47;;;19.50;91.60;;;;;;4890114;29;20548;-44
2022/05/31 11:51:21;;;;;;;7.88;4.80;;;19.50;90.30;;;;;;4867526;29;20108;-45
2022/05/31 11:53:55;;;;;;;8.45;5.05;;;19.40;89.10;;;;;;4868599;29;20060;-47
2022/05/31 11:56:36;;;;;;;6.95;5.25;;;19.30;91.10;;;;;;4882633;29;20071;-46
2022/05/31 11:59:15;;;;;;;7.65;5.15;;;19.20;90.90;;;;;;4849193;29;20421;-45
2022/05/31 12:01:50;;;;;;;8.88;5.00;;;19.00;91.40;;;;;;4871212;29;20064;-45
2022/05/31 12:04:23;;;;;;;8.43;6.03;;;18.90;91.70;;;;;;4871448;29;20060;-46
2022/05/31 12:06:53;;;;;;;8.45;5.35;;;18.70;92.80;;;;;;4886771;29;21034;-47
2022/05/31 12:09:27;;;;;;;8.52;5.38;;;18.50;93.20;;;;;;4889675;29;20507;-47
2022/05/31 12:11:57;;;;;;;7.35;5.10;;;18.40;94.20;;;;;;4941567;28;20062;-46
2022/05/31 12:14:24;;;;;;;8.10;4.78;;;18.30;93.30;;;;;;4958167;28;20083;-47
2022/05/31 12:16:51;;;;;;;7.60;4.68;;;18.20;93.70;;;;;;4915096;29;20051;-46
2022/05/31 12:19:27;;;;;;;7.65;4.55;;;18.10;93.50;;;;;;4933441;29;20481;-45
2022/05/31 12:22:18;;;;;;;7.30;4.78;;;17.90;93.50;;;;;;4938930;29;20063;-46
2022/05/31 12:24:56;;;;;;;8.32;4.85;;;17.90;93.80;;;;;;4939180;28;20288;-49
2022/05/31 12:27:28;;;;;;;11.60;4.80;;;17.80;93.80;;;;;;4945658;28;20068;-47
2022/05/31 12:30:19;;;;;;;7.65;4.78;;;17.70;93.30;;;;;;5002673;28;20064;-45
2022/05/31 12:32:48;;;;;;;7.10;4.95;;;17.60;94.30;;;;;;4924982;29;20680;-45
2022/05/31 12:35:32;;;;;;;7.13;5.32;;;17.60;94.50;;;;;;4927113;29;20063;-46
2022/05/31 12:38:00;;;;;;;7.18;4.88;;;17.50;93.30;;;;;;4944260;28;20130;-47
2022/05/31 12:40:35;;;;;;;9.00;5.13;;;17.50;93.40;;;;;;4942774;29;20138;-46
2022/05/31 12:43:04;;;;;;;9.55;5.28;;;17.50;94.10;;;;;;4943218;29;20070;-46
2022/05/31 12:45:33;;;;;;;9.25;5.18;;;17.40;94.30;;;;;;4944882;28;20066;-45
2022/05/31 12:48:10;;;;;;;9.82;4.60;;;17.30;94.10;;;;;;4942936;29;20056;-44
2022/05/31 12:50:54;;;;;;;8.10;4.65;;;17.20;94.20;;;;;;4942632;29;20062;-45
2022/05/31 12:53:58;;;;;;;10.00;6.47;;;17.10;95.00;;;;;;4943815;29;20094;-45
2022/05/31 12:56:54;;;;;;;10.95;6.13;;;17.00;96.70;;;;;;4938657;28;20168;-45
2022/05/31 12:59:41;;;;;;;9.55;6.47;;;16.90;97.40;;;;;;4939005;28;20530;-46
2022/05/31 13:02:35;;;;;;;9.32;6.50;;;16.80;98.50;;;;;;4941084;29;20051;-46
2022/05/31 13:05:06;;;;;;;;;;;16.80;98.20;;;;;;4921947;29;20086;-45
2022/05/31 13:08:16;;;;;;;7.88;5.90;;;16.70;96.90;;;;;;4942220;28;19926;-45
2022/05/31 13:21:58;;;;;;;9.80;6.93;;;16.70;98.30;;;;;;4829988;29;20050;-45
2022/05/31 13:24:25;;;;;;;7.85;6.78;;;16.70;99.20;;;;;;4830689;29;20085;-45
2022/05/31 13:26:51;;;;;;;9.90;6.88;;;16.60;98.90;;;;;;4835258;29;20061;-48
2022/05/31 13:29:23;;;;;;;10.98;6.45;;;16.60;97.70;;;;;;4832224;29;20129;-47
2022/05/31 13:32:00;;;;;;;10.75;7.22;;;16.60;97.80;;;;;;4873584;29;20106;-46
2022/05/31 13:34:39;;;;;;;9.13;6.85;;;16.70;97.00;;;;;;4920452;29;20086;-45
2022/05/31 13:37:20;;;;;;;11.55;7.50;;;16.60;98.20;;;;;;4907710;29;20054;-46
2022/05/31 13:39:49;;;;;;;9.50;8.32;;;16.50;97.50;;;;;;4921416;29;20060;-46
2022/05/31 13:42:20;;;;;;;10.80;8.80;;;16.20;98.20;;;;;;4920222;29;20051;-49
2022/05/31 13:44:46;;;;;;;12.95;8.82;;;15.90;98.40;;;;;;4920463;29;20547;-49
2022/05/31 13:47:18;;;;;;;9.63;8.63;;;15.80;99.70;;;;;;4981403;28;20121;-44
2022/05/31 13:49:45;;;;;;;23.90;9.63;;;15.70;99.90;;;;;;5004036;28;20735;-46
2022/05/31 13:52:24;;;;;;;12.32;9.27;;;15.70;99.90;;;;;;5014972;28;20064;-44
2022/05/31 13:55:06;;;;;;;12.10;9.18;;;15.60;99.90;;;;;;5009611;28;20063;-46